createdAt,value
2019-04-21T00:03:07.353Z,100070.27
2019-04-21T00:08:46.937Z,100071.61
2019-04-21T00:13:33.152Z,100057.80
2019-04-21T00:19:08.136Z,100054.32
2019-04-21T00:24:31.439Z,100058.22
2019-04-21T00:34:30.186Z,100048.88
2019-04-21T00:40:02.159Z,100040.06
2019-04-21T00:44:58.695Z,100041.14
2019-04-21T00:50:10.854Z,100031.18
2019-04-21T00:55:45.895Z,100033.71
2019-04-21T01:00:36.361Z,100034.08
2019-04-21T01:05:42.839Z,100030.07
2019-04-21T01:10:40.513Z,100034.80
2019-04-21T01:15:53.129Z,100030.69
2019-04-21T01:20:41.590Z,100025.55
2019-04-21T01:26:03.153Z,100022.08
2019-04-21T01:31:13.666Z,100025.86
2019-04-21T01:36:24.170Z,100029.93
2019-04-21T01:41:33.654Z,100025.50
2019-04-21T01:46:33.664Z,100027.48
2019-04-21T01:52:02.751Z,100023.13
2019-04-21T01:57:02.105Z,100014.45
2019-04-21T02:02:11.063Z,100020.44
2019-04-21T02:07:25.007Z,100015.65
2019-04-21T02:12:33.388Z,100013.72
2019-04-21T02:17:34.244Z,100008.19
2019-04-21T02:27:59.225Z,100003.02
2019-04-21T02:33:26.045Z,99998.59
2019-04-21T02:38:34.468Z,99992.84
2019-04-21T02:43:25.709Z,99994.28
2019-04-21T02:48:45.035Z,99996.50
2019-04-21T02:54:27.946Z,99989.38
2019-04-21T02:59:02.465Z,99986.70
2019-04-21T03:04:34.915Z,99978.53
2019-04-21T03:14:56.143Z,99965.13
2019-04-21T03:30:29.398Z,99947.16
2019-04-21T03:40:40.959Z,99943.98
2019-04-21T03:45:49.111Z,99951.14
2019-04-21T03:51:04.775Z,99939.97
2019-04-21T04:06:38.796Z,99934.84
2019-04-21T04:11:49.554Z,99940.03
2019-04-21T04:16:57.249Z,99946.00
2019-04-21T04:27:20.860Z,99948.81
2019-04-21T04:32:29.240Z,99952.98
2019-04-21T04:47:51.350Z,99958.17
2019-04-21T04:53:09.562Z,99960.34
2019-04-21T04:58:11.107Z,99948.80
2019-04-21T05:03:18.925Z,99955.95
2019-04-21T05:08:37.907Z,99946.83
2019-04-21T05:13:26.509Z,99946.49
2019-04-21T05:18:48.922Z,99939.48
2019-04-21T05:23:31.370Z,99945.78
2019-04-21T05:28:37.002Z,99939.92
2019-04-21T05:34:03.703Z,99941.27
2019-04-21T05:39:21.563Z,99936.48
2019-04-21T05:44:37.978Z,99937.58
2019-04-21T05:50:02.432Z,99941.98
2019-04-21T05:55:12.334Z,99933.97
2019-04-21T06:00:23.673Z,99931.87
2019-04-21T06:10:34.702Z,99930.19
2019-04-21T06:15:48.410Z,99935.60
2019-04-21T06:20:54.590Z,99934.47
2019-04-21T06:26:27.971Z,99933.22
2019-04-21T06:31:12.671Z,99920.03
2019-04-21T06:36:36.146Z,99929.80
2019-04-21T06:41:33.860Z,99921.80
2019-04-21T06:46:46.009Z,99918.39
2019-04-21T06:52:07.538Z,99919.60
2019-04-21T06:57:06.849Z,99922.69
2019-04-21T07:02:30.671Z,99908.89
2019-04-21T07:07:19.103Z,99909.94
2019-04-21T07:12:27.546Z,99908.88
2019-04-21T07:17:38.981Z,99914.09
2019-04-21T07:22:48.072Z,99905.11
2019-04-21T07:27:59.359Z,99892.13
2019-04-21T07:33:21.956Z,99891.22
2019-04-21T07:38:19.204Z,99883.89
2019-04-21T07:43:22.188Z,99885.02
2019-04-21T07:48:43.535Z,99879.84
2019-04-21T07:54:02.325Z,99880.06
2019-04-21T07:59:03.801Z,99880.52
2019-04-21T08:04:40.950Z,99877.67
2019-04-21T08:09:26.085Z,99878.69
2019-04-21T08:14:44.117Z,99867.98
2019-04-21T08:19:43.305Z,99874.43
2019-04-21T08:24:59.369Z,99871.61
2019-04-21T08:30:04.725Z,99865.13
2019-04-21T08:40:40.917Z,99869.25
2019-04-21T08:45:44.562Z,99869.55
2019-04-21T08:50:58.640Z,99866.03
2019-04-21T08:56:27.353Z,99857.06
2019-04-21T09:02:06.325Z,99846.28
2019-04-21T09:07:21.358Z,99840.50
2019-04-21T09:12:21.235Z,99841.03
2019-04-21T09:17:28.492Z,99841.44
2019-04-21T09:22:45.714Z,99832.30
2019-04-21T09:27:47.009Z,99824.18
2019-04-21T09:32:42.453Z,99814.78
2019-04-21T09:37:53.470Z,99812.07
2019-04-21T09:43:09.414Z,99810.45
2019-04-21T09:48:17.566Z,99807.77
2019-04-21T09:53:29.460Z,99805.19
2019-04-21T09:58:41.974Z,99798.47
2019-04-21T10:03:53.697Z,99785.03
2019-04-21T10:09:03.760Z,99774.48
2019-04-21T10:14:05.743Z,99762.98
2019-04-21T10:19:17.536Z,99762.45
2019-04-21T10:24:26.386Z,99750.30
2019-04-21T10:29:33.388Z,99745.20
2019-04-21T10:34:45.181Z,99736.12
2019-04-21T10:39:51.996Z,99733.58
2019-04-21T10:45:05.100Z,99724.25
2019-04-21T10:50:13.266Z,99708.94
2019-04-21T10:55:40.432Z,99711.87
2019-04-21T11:00:28.118Z,99709.42
2019-04-21T11:05:34.632Z,99696.82
2019-04-21T11:10:43.893Z,99689.59
2019-04-21T11:15:50.901Z,99689.53
2019-04-21T11:21:00.801Z,99686.50
2019-04-21T11:26:10.073Z,99674.70
2019-04-21T11:31:20.789Z,99663.76
2019-04-21T11:36:33.222Z,99660.53
2019-04-21T11:41:39.407Z,99651.90
2019-04-21T11:46:46.685Z,99654.69
2019-04-21T11:51:56.715Z,99647.76
2019-04-21T11:57:12.494Z,99636.92
2019-04-21T12:02:15.200Z,99632.05
2019-04-21T12:07:25.047Z,99627.80
2019-04-21T12:12:35.120Z,99617.12
2019-04-21T12:17:44.029Z,99608.48
2019-04-21T12:23:12.192Z,99608.77
2019-04-21T12:28:27.955Z,99605.22
2019-04-21T12:34:05.678Z,99600.94
2019-04-21T12:39:17.154Z,99585.80
2019-04-21T12:44:27.835Z,99569.64
2019-04-21T12:49:41.343Z,99565.77
2019-04-21T13:00:00.517Z,99551.02
2019-04-21T13:05:09.426Z,99540.42
2019-04-21T13:10:20.199Z,99542.89
2019-04-21T13:15:29.508Z,99539.99
2019-04-21T13:20:38.177Z,99533.89
2019-04-21T13:25:45.686Z,99526.69
2019-04-21T13:30:52.012Z,99522.55
2019-04-21T13:35:59.347Z,99512.39
2019-04-21T13:41:41.499Z,99505.97
2019-04-21T13:46:38.594Z,99499.17
2019-04-21T13:51:50.076Z,99475.87
2019-04-21T13:56:58.646Z,99477.25
2019-04-21T14:02:06.759Z,99474.39
2019-04-21T14:07:14.335Z,99465.67
2019-04-21T14:12:21.192Z,99457.55
2019-04-21T14:17:29.002Z,99459.16
2019-04-21T14:22:35.995Z,99448.16
2019-04-21T14:27:42.395Z,99442.67
2019-04-21T14:32:49.838Z,99433.46
2019-04-21T14:37:56.546Z,99438.02
2019-04-21T14:43:02.680Z,99421.70
2019-04-21T14:48:27.426Z,99435.80
2019-04-21T14:53:51.928Z,99427.66
2019-04-21T14:58:59.503Z,99419.95
2019-04-21T15:04:08.018Z,99427.49
2019-04-21T15:09:15.353Z,99417.39
2019-04-21T15:14:22.219Z,99406.04
2019-04-21T15:24:36.262Z,99412.16
2019-04-21T15:29:48.777Z,99411.29
2019-04-21T15:34:54.446Z,99405.59
2019-04-21T15:40:11.303Z,99410.12
2019-04-21T15:45:08.497Z,99391.70
2019-04-21T15:50:17.743Z,99393.92
2019-04-21T15:55:41.123Z,99394.70
2019-04-21T16:00:52.432Z,99386.13
2019-04-21T16:05:59.403Z,99385.28
2019-04-21T16:11:11.387Z,99378.10
2019-04-21T16:16:18.099Z,99374.20
2019-04-21T16:21:24.373Z,99372.20
2019-04-21T16:26:30.679Z,99363.25
2019-04-21T16:31:38.345Z,99363.14
2019-04-21T16:36:45.639Z,99350.23
2019-04-21T16:41:52.612Z,99354.91
2019-04-21T16:46:59.330Z,99351.14
2019-04-21T16:52:28.116Z,99348.48
2019-04-21T16:57:41.880Z,99333.13
2019-04-21T17:02:48.313Z,99344.41
2019-04-21T17:07:55.650Z,99342.27
2019-04-21T17:13:02.308Z,99339.70
2019-04-21T17:18:29.972Z,99337.28
2019-04-21T17:23:17.609Z,99329.84
2019-04-21T17:28:23.587Z,99336.78
2019-04-21T17:33:33.735Z,99327.28
2019-04-21T17:38:40.235Z,99326.09
2019-04-21T17:43:45.817Z,99329.72
2019-04-21T17:48:52.675Z,99326.39
2019-04-21T17:54:18.635Z,99320.89
2019-04-21T17:59:51.027Z,99327.39
2019-04-21T18:04:49.337Z,99326.97
2019-04-21T18:10:00.893Z,99328.84
2019-04-21T18:15:00.097Z,99326.75
2019-04-21T18:19:59.675Z,99322.87
2019-04-21T18:25:24.213Z,99328.84
2019-04-21T18:31:02.127Z,99332.50
2019-04-21T18:36:45.486Z,99333.59
2019-04-21T18:42:18.930Z,99333.72
2019-04-21T18:47:43.642Z,99334.91
2019-04-21T18:52:55.572Z,99334.42
2019-04-21T18:57:49.432Z,99332.73
2019-04-21T19:02:56.667Z,99336.84
2019-04-21T19:08:18.809Z,99340.74
2019-04-21T19:13:44.179Z,99346.55
2019-04-21T19:19:04.103Z,99346.22
2019-04-21T19:23:55.735Z,99348.09
2019-04-21T19:29:16.314Z,99341.72
2019-04-21T19:34:08.355Z,99339.45
2019-04-21T19:39:23.394Z,99334.33
2019-04-21T19:44:45.498Z,99332.88
2019-04-21T19:49:55.136Z,99332.62
2019-04-21T19:54:45.462Z,99331.77
2019-04-21T19:59:54.947Z,99333.78
2019-04-21T20:05:08.830Z,99323.72
2019-04-21T20:10:33.447Z,99321.48
2019-04-21T20:15:42.152Z,99321.65
2019-04-21T20:20:28.998Z,99324.11
2019-04-21T20:25:44.316Z,99325.41
2019-04-21T20:31:06.694Z,99326.92
2019-04-21T20:36:15.879Z,99329.13
2019-04-21T20:41:19.617Z,99328.66
2019-04-21T20:46:25.399Z,99323.08
2019-04-21T20:51:35.895Z,99328.38
2019-04-21T20:56:45.228Z,99317.41
2019-04-21T21:01:52.217Z,99323.47
2019-04-21T21:07:01.959Z,99337.11
2019-04-21T21:12:24.706Z,99334.91
2019-04-21T21:17:34.485Z,99334.06
2019-04-21T21:22:16.531Z,99339.02
2019-04-21T21:27:26.797Z,99333.28
2019-04-21T21:32:38.472Z,99335.49
2019-04-21T21:37:49.255Z,99326.58
2019-04-21T21:42:40.673Z,99327.89
2019-04-21T21:48:01.042Z,99317.88
2019-04-21T21:53:00.580Z,99329.03
2019-04-21T21:58:03.497Z,99321.30
2019-04-21T22:03:20.981Z,99324.11
2019-04-21T22:08:20.663Z,99317.57
2019-04-21T22:13:36.311Z,99314.94
2019-04-21T22:18:51.174Z,99311.38
2019-04-21T22:23:54.821Z,99307.77
2019-04-21T22:28:51.819Z,99299.20
2019-04-21T22:34:05.391Z,99301.11
2019-04-21T22:39:28.426Z,99298.16
2019-04-21T22:44:22.692Z,99297.85
2019-04-21T22:49:32.606Z,99297.33
2019-04-21T22:54:44.517Z,99299.92
2019-04-21T22:59:54.968Z,99299.05
2019-04-21T23:04:58.246Z,99293.05
2019-04-21T23:10:03.599Z,99300.73
2019-04-21T23:15:15.314Z,99295.26
2019-04-21T23:20:39.386Z,99298.50
2019-04-21T23:25:42.553Z,99295.45
2019-04-21T23:30:56.524Z,99296.62
2019-04-21T23:35:47.761Z,99304.47
2019-04-21T23:40:59.816Z,99306.33
2019-04-21T23:46:13.231Z,99301.78
2019-04-21T23:51:25.430Z,99294.39
2019-04-21T23:56:29.184Z,99287.88
